Wolfville, Canada
Current Conditions -  °F | °C
As of 11:00 PM on Saturday 22 Nov 2014 (Local Time) from CYZX Reporting Station
Scattered Clouds Scattered Clouds  
Wind Chill: 32°   Ceiling: Unl
Heat Index: 39°   Visibility: 15mi
Dew Point: 34°   Wind: 13mph
Humidity: 81%   Direction: 230°SW
Pressure: 29.9"   Gusts: NA
Location:  45.08°N, 64.37°W
Report Text: CYZX 230300Z 23011KT 15SM FEW033 SCT054 04/01 A2990 RMK SC1SC3 WNDY HILL 24009G15KT SLP127
Loading
Personal Weather Stations






























Interactive Weather Map New forecast layout! Learn more

10-Day Weather Forecast

Advertisements
Track Severe Weather on mobile